createdAt,value
2023-04-01T00:00:20.127Z,97670.09
2023-04-01T00:02:49.315Z,97668.41
2023-04-01T00:05:17.699Z,97661.53
2023-04-01T00:07:45.651Z,97671.09
2023-04-01T00:10:13.835Z,97670.88
2023-04-01T00:12:41.807Z,97655.13
2023-04-01T00:15:11.000Z,97670.81
2023-04-01T00:17:39.327Z,97669.94
2023-04-01T00:20:10.254Z,97668.25
2023-04-01T00:22:38.330Z,97668.19
2023-04-01T00:25:06.985Z,97671.75
2023-04-01T00:27:34.661Z,97653.13
2023-04-01T00:30:02.487Z,97663.41
2023-04-01T00:32:31.495Z,97645.53
2023-04-01T00:35:00.424Z,97667.28
2023-04-01T00:37:29.751Z,97666.84
2023-04-01T00:39:57.867Z,97665.31
2023-04-01T00:42:26.714Z,97650.56
2023-04-01T00:44:55.373Z,97654.81
2023-04-01T00:47:23.338Z,97662.91
2023-04-01T00:49:52.197Z,97646.47
2023-04-01T00:52:21.081Z,97636.75
2023-04-01T00:54:51.567Z,97647.34
2023-04-01T00:57:21.025Z,97646.63
2023-04-01T00:59:50.751Z,97647.34
2023-04-01T01:02:19.438Z,97621.84
2023-04-01T01:04:47.719Z,97645.94
2023-04-01T01:07:21.491Z,97629.22
2023-04-01T01:09:53.877Z,97648.66
2023-04-01T01:12:22.708Z,97625.84
2023-04-01T01:15:00.539Z,97601.59
2023-04-01T01:17:36.459Z,97649.47
2023-04-01T01:20:36.715Z,97639.69
2023-04-01T01:23:25.336Z,97637.41
2023-04-01T01:25:58.758Z,97633.88
2023-04-01T01:28:33.836Z,97633.81
2023-04-01T01:31:04.357Z,97631.25
2023-04-01T01:33:44.949Z,97631.81
2023-04-01T01:36:14.778Z,97632.66
2023-04-01T01:38:42.673Z,97615.63
2023-04-01T01:41:10.355Z,97627.69
2023-04-01T01:43:39.490Z,97632.16
2023-04-01T01:46:08.752Z,97591.44
2023-04-01T01:48:37.124Z,97633.97
2023-04-01T01:51:05.243Z,97626.16
2023-04-01T01:53:34.376Z,97630.69
2023-04-01T01:56:02.470Z,97634.25
2023-04-01T01:58:31.687Z,97643.09
2023-04-01T02:00:59.853Z,97645.38
2023-04-01T02:03:28.513Z,97615.28
2023-04-01T02:05:57.303Z,97640.41
2023-04-01T02:08:26.378Z,97639.88
2023-04-01T02:10:58.054Z,97601.41
2023-04-01T02:13:28.785Z,97641.28
2023-04-01T02:15:58.065Z,97635.94
2023-04-01T02:21:00.350Z,97643.38
2023-04-01T02:23:28.018Z,97666.13
2023-04-01T02:25:57.280Z,97633.88
2023-04-01T02:28:24.951Z,97640.81
2023-04-01T02:30:52.687Z,97643.53
2023-04-01T02:33:21.162Z,97651.28
2023-04-01T02:35:48.957Z,97637.56
2023-04-01T02:38:17.444Z,97635.00
2023-04-01T02:40:47.068Z,97655.91
2023-04-01T02:43:17.121Z,97644.78
2023-04-01T02:45:44.968Z,97639.56
2023-04-01T02:48:13.693Z,97632.78
2023-04-01T02:50:41.378Z,97639.88
2023-04-01T02:53:09.314Z,97639.31
2023-04-01T02:55:36.946Z,97638.44
2023-04-01T02:58:04.810Z,97632.66
2023-04-01T03:00:33.883Z,97638.88
2023-04-01T03:03:01.819Z,97626.94
2023-04-01T03:05:29.577Z,97635.00
2023-04-01T03:07:57.395Z,97636.03
2023-04-01T03:10:25.017Z,97640.34
2023-04-01T03:12:52.775Z,97630.91
2023-04-01T03:15:20.603Z,97645.84
2023-04-01T03:17:49.816Z,97629.63
2023-04-01T03:20:18.004Z,97645.34
2023-04-01T03:22:45.648Z,97641.94
2023-04-01T03:25:13.478Z,97646.28
2023-04-01T03:27:41.244Z,97657.59
2023-04-01T03:30:10.433Z,97651.91
2023-04-01T03:32:39.026Z,97659.72
2023-04-01T03:35:10.631Z,97651.91
2023-04-01T03:37:38.301Z,97663.31
2023-04-01T03:40:07.462Z,97655.50
2023-04-01T03:42:35.896Z,97655.31
2023-04-01T03:45:04.284Z,97653.00
2023-04-01T03:47:31.947Z,97661.25
2023-04-01T03:49:59.761Z,97662.25
2023-04-01T03:52:28.760Z,97655.09
2023-04-01T03:54:57.119Z,97661.06
2023-04-01T03:57:24.807Z,97660.22
2023-04-01T03:59:52.661Z,97642.22
2023-04-01T04:02:20.437Z,97662.91
2023-04-01T04:04:48.543Z,97660.06
2023-04-01T04:07:16.178Z,97663.41
2023-04-01T04:09:45.452Z,97651.34
2023-04-01T04:12:13.089Z,97669.56
2023-04-01T04:14:40.905Z,97670.97
2023-04-01T04:17:09.180Z,97659.81
2023-04-01T04:19:36.829Z,97663.06
2023-04-01T04:22:04.646Z,97670.75
2023-04-01T04:24:32.297Z,97660.78
2023-04-01T04:27:01.524Z,97689.81
2023-04-01T04:29:29.154Z,97664.41
2023-04-01T04:31:57.098Z,97677.41
2023-04-01T04:34:24.833Z,97681.91
2023-04-01T04:36:52.657Z,97675.50
2023-04-01T04:39:22.323Z,97670.03
2023-04-01T04:41:50.232Z,97673.44
2023-04-01T04:44:19.254Z,97669.94
2023-04-01T04:46:47.242Z,97665.50
2023-04-01T04:49:14.962Z,97664.66
2023-04-01T04:51:42.979Z,97675.63
2023-04-01T04:54:10.655Z,97671.22
2023-04-01T04:56:38.550Z,97676.41
2023-04-01T04:59:06.275Z,97673.63
2023-04-01T05:01:35.463Z,97669.63
2023-04-01T05:04:03.268Z,97685.25
2023-04-01T05:06:32.258Z,97686.09
2023-04-01T05:08:59.898Z,97686.88
2023-04-01T05:11:28.264Z,97690.16
2023-04-01T05:13:55.962Z,97697.31
2023-04-01T05:16:23.894Z,97690.22
2023-04-01T05:18:55.188Z,97698.94
2023-04-01T05:21:22.799Z,97693.69
2023-04-01T05:23:51.611Z,97697.09
2023-04-01T05:26:19.220Z,97699.63
2023-04-01T05:28:47.043Z,97699.63
2023-04-01T05:31:14.725Z,97701.25
2023-04-01T05:33:42.583Z,97696.88
2023-04-01T05:36:13.060Z,97701.31
2023-04-01T05:38:41.162Z,97703.88
2023-04-01T05:41:08.866Z,97694.38
2023-04-01T05:43:37.866Z,97702.13
2023-04-01T05:46:05.678Z,97710.53
2023-04-01T05:48:34.964Z,97698.41
2023-04-01T05:51:02.735Z,97713.09
2023-04-01T05:53:31.898Z,97708.69
2023-04-01T05:56:03.781Z,97710.31
2023-04-01T05:58:32.674Z,97712.25
2023-04-01T06:01:10.110Z,97718.25
2023-04-01T06:03:40.610Z,97709.84
2023-04-01T06:06:12.921Z,97708.13
2023-04-01T06:08:41.941Z,97708.97
2023-04-01T06:11:18.709Z,97721.72
2023-04-01T06:14:06.571Z,97713.94
2023-04-01T06:16:38.905Z,97716.41
2023-04-01T06:19:15.350Z,97724.00
2023-04-01T06:22:01.200Z,97717.19
2023-04-01T06:24:46.116Z,97731.56
2023-04-01T06:27:19.106Z,97697.16
2023-04-01T06:29:52.526Z,97736.72
2023-04-01T06:32:38.784Z,97737.53
2023-04-01T06:35:20.640Z,97728.47
2023-04-01T06:38:04.163Z,97739.94
2023-04-01T06:40:59.008Z,97735.47
2023-04-01T06:43:28.075Z,97738.16
2023-04-01T06:45:57.230Z,97748.69
2023-04-01T06:48:34.643Z,97738.22
2023-04-01T06:51:05.602Z,97740.69
2023-04-01T06:53:35.365Z,97742.56
2023-04-01T06:56:08.392Z,97746.78
2023-04-01T06:58:38.164Z,97719.03
2023-04-01T07:01:06.671Z,97752.72
2023-04-01T07:03:35.751Z,97752.41
2023-04-01T07:06:05.185Z,97752.41
2023-04-01T07:08:34.093Z,97759.88
2023-04-01T07:11:03.466Z,97759.50
2023-04-01T07:13:34.023Z,97763.75
2023-04-01T07:16:07.296Z,97761.91
2023-04-01T07:18:38.063Z,97767.22
2023-04-01T07:21:06.387Z,97760.38
2023-04-01T07:23:35.285Z,97789.13
2023-04-01T07:26:06.069Z,97770.72
2023-04-01T07:28:35.776Z,97763.59
2023-04-01T07:31:09.866Z,97767.00
2023-04-01T07:33:39.809Z,97766.44
2023-04-01T07:36:10.302Z,97774.09
2023-04-01T07:38:42.365Z,97699.03
2023-04-01T07:41:12.803Z,97784.47
2023-04-01T07:43:53.330Z,97781.69
2023-04-01T07:46:31.674Z,97773.03
2023-04-01T07:49:01.249Z,97782.28
2023-04-01T07:51:31.147Z,97757.75
2023-04-01T07:54:02.838Z,97800.53
2023-04-01T07:56:32.519Z,97765.41
2023-04-01T07:59:04.588Z,97779.00
2023-04-01T08:01:34.731Z,97801.03
2023-04-01T08:04:22.504Z,97802.41
2023-04-01T08:06:52.897Z,97804.28
2023-04-01T08:09:25.030Z,97813.78
2023-04-01T08:12:01.723Z,97814.78
2023-04-01T08:14:32.863Z,97799.97
2023-04-01T08:17:03.503Z,97814.63
2023-04-01T08:19:34.065Z,97818.19
2023-04-01T08:22:05.566Z,97816.63
2023-04-01T08:24:46.320Z,97823.59
2023-04-01T08:27:18.161Z,97832.25
2023-04-01T08:29:50.332Z,97827.84
2023-04-01T08:32:18.530Z,97830.13
2023-04-01T08:34:47.522Z,97837.19
2023-04-01T08:37:18.592Z,97831.31
2023-04-01T08:39:47.765Z,97845.91
2023-04-01T08:42:34.308Z,97843.06
2023-04-01T08:45:24.321Z,97848.09
2023-04-01T08:47:59.198Z,97844.09
2023-04-01T08:50:52.592Z,97854.22
2023-04-01T08:53:23.188Z,97822.72
2023-04-01T08:56:03.372Z,97858.81
2023-04-01T08:59:00.754Z,97861.22
2023-04-01T09:01:48.831Z,97856.34
2023-04-01T09:04:28.063Z,97866.63
2023-04-01T09:07:02.728Z,97853.25
2023-04-01T09:10:10.351Z,97877.22
2023-04-01T09:12:52.052Z,97871.28
2023-04-01T09:15:32.585Z,97850.94
2023-04-01T09:18:32.864Z,97879.72
2023-04-01T09:21:30.457Z,97891.94
2023-04-01T09:24:16.674Z,97887.50
2023-04-01T09:26:57.298Z,97893.63
2023-04-01T09:29:33.621Z,97889.22
2023-04-01T09:32:15.193Z,97857.13
2023-04-01T09:34:54.792Z,97905.06
2023-04-01T09:37:22.866Z,97906.00
2023-04-01T09:40:01.800Z,97908.97
2023-04-01T09:42:46.984Z,97905.88
2023-04-01T09:45:23.462Z,97912.63
2023-04-01T09:47:58.174Z,97859.94
2023-04-01T09:50:43.972Z,97910.69
2023-04-01T09:53:20.925Z,97914.94
2023-04-01T09:56:24.774Z,97924.69
2023-04-01T09:59:07.028Z,97924.53
2023-04-01T10:02:22.880Z,97936.44
2023-04-01T10:05:33.094Z,97932.94
2023-04-01T10:08:35.940Z,97919.81
2023-04-01T10:11:23.524Z,97943.63
2023-04-01T10:14:20.791Z,97939.72
2023-04-01T10:17:00.134Z,97934.50
2023-04-01T10:19:50.802Z,97953.00
2023-04-01T10:22:31.235Z,97974.41
2023-04-01T10:25:37.409Z,97950.91
2023-04-01T10:28:18.435Z,97959.44
2023-04-01T10:31:15.899Z,97960.22
2023-04-01T10:34:03.669Z,97959.72
2023-04-01T10:36:48.984Z,97904.75
2023-04-01T10:39:31.643Z,97960.72
2023-04-01T10:42:49.945Z,97966.47
2023-04-01T10:45:41.946Z,97968.09
2023-04-01T10:48:16.694Z,97966.78
2023-04-01T10:50:56.132Z,97942.97
2023-04-01T10:53:46.448Z,97978.53
2023-04-01T10:56:41.546Z,97967.56
2023-04-01T10:59:41.946Z,97911.13
2023-04-01T11:02:57.300Z,97970.97
2023-04-01T11:06:07.899Z,97973.91
2023-04-01T11:09:05.681Z,97979.25
2023-04-01T11:12:09.938Z,97984.50
2023-04-01T11:15:11.163Z,97990.69
2023-04-01T11:17:50.127Z,97980.63
2023-04-01T11:20:53.171Z,97991.56
2023-04-01T11:23:32.869Z,97996.72
2023-04-01T11:26:11.649Z,97982.66
2023-04-01T11:29:05.307Z,97993.03
2023-04-01T11:31:38.708Z,97999.28
2023-04-01T11:34:13.815Z,98003.69
2023-04-01T11:36:47.006Z,98007.63
2023-04-01T11:39:22.631Z,98006.63
2023-04-01T11:41:54.060Z,98006.63
2023-04-01T11:44:23.446Z,98008.25
2023-04-01T11:46:58.861Z,98009.41
2023-04-01T11:49:32.517Z,98019.31
2023-04-01T11:52:09.185Z,98020.16
2023-04-01T11:55:02.462Z,98025.81
2023-04-01T11:57:42.260Z,98026.81
2023-04-01T12:00:21.518Z,98020.47
2023-04-01T12:02:53.868Z,98033.00
2023-04-01T12:05:26.616Z,98032.41
2023-04-01T12:08:05.228Z,98038.03
2023-04-01T12:10:36.722Z,98046.56
2023-04-01T12:13:06.679Z,98043.94
2023-04-01T12:15:39.886Z,98034.88
2023-04-01T12:18:15.553Z,98052.34
2023-04-01T12:20:49.258Z,98049.00
2023-04-01T12:23:35.373Z,98026.56
2023-04-01T12:26:15.767Z,98060.00
2023-04-01T12:28:48.628Z,98061.94
2023-04-01T12:31:24.712Z,98079.53
2023-04-01T12:33:58.816Z,98062.81
2023-04-01T12:36:34.609Z,98077.56
2023-04-01T12:39:25.354Z,98044.53
2023-04-01T12:41:56.753Z,98081.13
2023-04-01T12:44:36.302Z,98071.75
2023-04-01T12:47:35.257Z,98078.00
2023-04-01T12:50:16.660Z,98106.94
2023-04-01T12:52:51.649Z,98088.84
2023-04-01T12:55:39.950Z,98097.56
2023-04-01T12:59:00.979Z,98095.81
2023-04-01T13:01:41.599Z,98097.88
2023-04-01T13:04:31.435Z,98097.03
2023-04-01T13:07:12.252Z,98063.09
2023-04-01T13:09:45.097Z,98105.41
2023-04-01T13:12:28.903Z,98107.09
2023-04-01T13:15:28.139Z,98112.28
2023-04-01T13:17:57.118Z,98120.31
2023-04-01T13:20:31.327Z,98096.41
2023-04-01T13:23:06.229Z,98116.69
2023-04-01T13:25:38.519Z,98132.34
2023-04-01T13:28:12.676Z,98121.81
2023-04-01T13:30:43.354Z,98122.72
2023-04-01T13:33:15.866Z,98107.34
2023-04-01T13:35:45.782Z,98139.16
2023-04-01T13:38:27.024Z,98137.28
2023-04-01T13:41:03.040Z,98139.84
2023-04-01T13:43:33.919Z,98141.41
2023-04-01T13:46:18.365Z,98142.00
2023-04-01T13:49:06.019Z,98116.69
2023-04-01T13:52:06.193Z,98144.53
2023-04-01T13:55:03.757Z,98149.50
2023-04-01T13:57:44.857Z,98165.16
2023-04-01T14:00:36.189Z,98158.56
2023-04-01T14:03:32.398Z,98155.94
2023-04-01T14:06:11.367Z,98163.06
2023-04-01T14:09:04.805Z,98165.59
2023-04-01T14:11:34.739Z,98168.22
2023-04-01T14:14:06.786Z,98162.25
2023-04-01T14:16:57.377Z,98169.34
2023-04-01T14:19:32.342Z,98173.56
2023-04-01T14:22:03.104Z,98175.94
2023-04-01T14:24:38.356Z,98176.81
2023-04-01T14:27:28.998Z,98165.44
2023-04-01T14:30:06.075Z,98155.63
2023-04-01T14:32:40.819Z,98182.78
2023-04-01T14:35:27.828Z,98189.59
2023-04-01T14:38:05.091Z,98126.53
2023-04-01T14:40:41.015Z,98147.91
2023-04-01T14:43:16.955Z,98209.78
2023-04-01T14:45:48.511Z,98193.00
2023-04-01T14:48:23.719Z,98152.25
2023-04-01T14:50:52.136Z,98196.50
2023-04-01T14:53:28.428Z,98204.34
2023-04-01T14:55:56.949Z,98199.88
2023-04-01T14:58:27.145Z,98189.88
2023-04-01T15:01:01.029Z,98204.34
2023-04-01T15:03:31.873Z,98206.16
2023-04-01T15:06:14.446Z,98215.84
2023-04-01T15:08:45.468Z,98208.94
2023-04-01T15:11:19.759Z,98214.22
2023-04-01T15:14:03.561Z,98221.34
2023-04-01T15:16:33.832Z,98178.97
2023-04-01T15:19:09.446Z,98224.19
2023-04-01T15:21:52.052Z,98225.78
2023-04-01T15:24:23.560Z,98225.22
2023-04-01T15:27:04.141Z,98228.41
2023-04-01T15:29:41.355Z,98211.78
2023-04-01T15:32:15.724Z,98193.19
2023-04-01T15:34:46.631Z,98236.41
2023-04-01T15:37:16.819Z,98240.59
2023-04-01T15:39:51.044Z,98244.72
2023-04-01T15:42:26.541Z,98250.75
2023-04-01T15:45:02.404Z,98257.59
2023-04-01T15:47:35.155Z,98252.50
2023-04-01T15:50:20.467Z,98262.00
2023-04-01T15:52:51.832Z,98264.72
2023-04-01T15:55:23.009Z,98270.09
2023-04-01T15:57:58.412Z,98227.06
2023-04-01T16:00:29.695Z,98270.66
2023-04-01T16:03:16.358Z,98282.59
2023-04-01T16:05:51.221Z,98280.09
2023-04-01T16:08:40.398Z,98282.66
2023-04-01T16:11:17.940Z,98277.47
2023-04-01T16:13:51.191Z,98284.38
2023-04-01T16:16:26.912Z,98239.31
2023-04-01T16:19:13.414Z,98293.25
2023-04-01T16:21:46.298Z,98274.78
2023-04-01T16:26:52.394Z,98286.84
2023-04-01T16:29:25.276Z,98222.00
2023-04-01T16:31:55.086Z,98291.44
2023-04-01T16:34:26.851Z,98265.50
2023-04-01T16:36:57.944Z,98311.78
2023-04-01T16:39:31.063Z,98306.75
2023-04-01T16:42:16.164Z,98315.59
2023-04-01T16:44:49.250Z,98315.66
2023-04-01T16:47:17.890Z,98319.38
2023-04-01T16:49:48.601Z,98326.47
2023-04-01T16:52:19.567Z,98298.66
2023-04-01T16:54:52.459Z,98326.59
2023-04-01T16:57:21.865Z,98299.00
2023-04-01T16:59:55.357Z,98317.97
2023-04-01T17:02:25.657Z,98337.44
2023-04-01T17:04:59.470Z,98338.38
2023-04-01T17:07:33.618Z,98329.91
2023-04-01T17:10:37.848Z,98353.84
2023-04-01T17:13:35.390Z,98355.78
2023-04-01T17:16:09.208Z,98360.31
2023-04-01T17:18:39.583Z,98357.59
2023-04-01T17:21:09.797Z,98365.75
2023-04-01T17:24:11.477Z,98371.84
2023-04-01T17:27:03.458Z,98373.91
2023-04-01T17:29:33.903Z,98387.16
2023-04-01T17:32:06.049Z,98378.56
2023-04-01T17:34:42.249Z,98343.97
2023-04-01T17:37:24.305Z,98386.38
2023-04-01T17:40:02.520Z,98393.44
2023-04-01T17:42:36.568Z,98395.06
2023-04-01T17:45:06.481Z,98402.94
2023-04-01T17:47:39.787Z,98409.13
2023-04-01T17:50:16.362Z,98386.22
2023-04-01T17:52:46.021Z,98387.78
2023-04-01T17:55:34.236Z,98406.84
2023-04-01T17:58:04.503Z,98414.66
2023-04-01T18:00:45.968Z,98415.47
2023-04-01T18:05:54.558Z,98361.88
2023-04-01T18:08:30.170Z,98430.97
2023-04-01T18:11:06.773Z,98384.19
2023-04-01T18:17:23.557Z,98321.19
2023-04-01T18:19:59.747Z,98474.16
2023-04-01T18:22:30.778Z,98233.03
2023-04-01T18:25:00.805Z,98213.84
2023-04-01T18:27:32.652Z,98167.69
2023-04-01T18:30:04.435Z,98053.34
2023-04-01T18:32:37.859Z,98245.00
2023-04-01T18:35:18.446Z,98288.41
2023-04-01T18:38:44.528Z,98307.50
2023-04-01T18:41:16.203Z,98210.00
2023-04-01T18:43:57.025Z,98433.81
2023-04-01T18:46:28.196Z,98398.25
2023-04-01T18:49:02.887Z,98454.28
2023-04-01T18:51:38.957Z,98423.44
2023-04-01T18:54:08.136Z,98474.97
2023-04-01T18:56:37.161Z,98469.00
2023-04-01T18:59:08.516Z,98450.78
2023-04-01T19:01:40.087Z,98506.97
2023-04-01T19:04:18.369Z,98504.44
2023-04-01T19:06:48.613Z,98507.84
2023-04-01T19:09:22.471Z,98402.97
2023-04-01T19:12:29.044Z,98521.81
2023-04-01T19:15:09.624Z,98418.38
2023-04-01T19:17:49.686Z,98499.13
2023-04-01T19:20:20.690Z,98531.63
2023-04-01T19:23:04.541Z,98497.13
2023-04-01T19:25:35.391Z,98274.19
2023-04-01T19:28:06.626Z,98522.25
2023-04-01T19:30:41.127Z,98490.34
2023-04-01T19:33:20.468Z,98548.41
2023-04-01T19:35:51.053Z,98402.25
2023-04-01T19:38:24.677Z,98487.31
2023-04-01T19:40:55.730Z,98247.09
2023-04-01T19:43:47.526Z,98326.75
2023-04-01T19:46:21.525Z,98601.44
2023-04-01T19:49:25.033Z,98438.44
2023-04-01T19:51:55.856Z,98506.41
2023-04-01T19:54:30.567Z,98387.16
2023-04-01T19:57:03.115Z,98299.06
2023-04-01T19:59:35.879Z,98533.00
2023-04-01T20:02:23.766Z,98555.47
2023-04-01T20:04:53.318Z,98604.69
2023-04-01T20:07:23.975Z,98593.28
2023-04-01T20:09:57.284Z,98582.69
2023-04-01T20:12:35.084Z,98522.38
2023-04-01T20:15:04.961Z,98568.34
2023-04-01T20:17:36.205Z,98595.50
2023-04-01T20:20:05.429Z,98518.22
2023-04-01T20:23:08.019Z,98480.97
2023-04-01T20:25:40.717Z,98540.59
2023-04-01T20:28:13.749Z,98576.06
2023-04-01T20:30:50.333Z,98644.22
2023-04-01T20:33:32.729Z,98400.97
2023-04-01T20:36:09.642Z,98472.59
2023-04-01T20:39:28.328Z,98644.09
2023-04-01T20:42:13.426Z,98564.06
2023-04-01T20:44:42.885Z,98576.84
2023-04-01T20:47:17.196Z,98377.09
2023-04-01T20:49:48.541Z,98628.75
2023-04-01T20:52:23.032Z,98491.22
2023-04-01T20:55:04.474Z,98680.34
2023-04-01T20:57:34.133Z,98647.19
2023-04-01T21:00:15.701Z,98575.31
2023-04-01T21:02:54.116Z,98731.47
2023-04-01T21:06:01.380Z,98679.38
2023-04-01T21:08:36.433Z,98578.78
2023-04-01T21:11:06.816Z,98477.63
2023-04-01T21:13:47.221Z,98671.44
2023-04-01T21:16:26.065Z,98670.50
2023-04-01T21:19:06.772Z,98678.34
2023-04-01T21:22:01.665Z,98694.00
2023-04-01T21:24:37.471Z,98682.75
2023-04-01T21:27:09.479Z,98520.91
2023-04-01T21:29:45.833Z,98690.56
2023-04-01T21:32:29.285Z,98692.34
2023-04-01T21:34:59.035Z,98689.72
2023-04-01T21:37:38.450Z,98458.50
2023-04-01T21:40:22.076Z,98689.38
2023-04-01T21:42:51.365Z,98709.81
2023-04-01T21:45:24.639Z,98734.06
2023-04-01T21:48:12.137Z,98562.78
2023-04-01T21:51:21.346Z,98718.47
2023-04-01T21:54:19.416Z,98644.66
2023-04-01T21:57:05.491Z,98597.00
2023-04-01T22:00:17.204Z,98751.84
2023-04-01T22:03:23.952Z,98738.00
2023-04-01T22:06:02.049Z,98792.34
2023-04-01T22:08:42.037Z,98744.88
2023-04-01T22:11:13.379Z,98573.72
2023-04-01T22:13:45.254Z,98699.94
2023-04-01T22:16:16.283Z,98769.19
2023-04-01T22:18:47.218Z,98739.84
2023-04-01T22:21:22.174Z,98775.91
2023-04-01T22:26:19.961Z,98733.69
2023-04-01T22:28:53.488Z,98792.28
2023-04-01T22:31:23.850Z,98807.41
2023-04-01T22:33:55.103Z,98814.00
2023-04-01T22:36:26.079Z,98818.50
2023-04-01T22:39:04.477Z,98820.44
2023-04-01T22:41:42.690Z,98820.47
2023-04-01T22:44:17.900Z,98831.97
2023-04-01T22:46:51.495Z,98840.81
2023-04-01T22:49:23.309Z,98848.16
2023-04-01T22:51:52.917Z,98849.09
2023-04-01T22:54:23.360Z,98848.41
2023-04-01T22:56:53.667Z,98862.44
2023-04-01T22:59:24.951Z,98867.94
2023-04-01T23:01:55.121Z,98857.69
2023-04-01T23:04:25.777Z,98869.84
2023-04-01T23:06:55.793Z,98882.41
2023-04-01T23:09:23.751Z,98887.44
2023-04-01T23:11:52.942Z,98888.56
2023-04-01T23:14:51.088Z,98866.44
2023-04-01T23:17:43.048Z,98865.69
2023-04-01T23:20:22.633Z,98908.91
2023-04-01T23:22:56.988Z,98903.13
2023-04-01T23:25:37.517Z,98909.19
2023-04-01T23:28:34.343Z,98939.97
2023-04-01T23:31:04.569Z,98935.63
2023-04-01T23:33:32.558Z,98933.13
2023-04-01T23:36:06.209Z,98940.94
2023-04-01T23:38:35.459Z,98958.31
2023-04-01T23:41:03.195Z,98909.09
2023-04-01T23:43:33.190Z,98955.75
2023-04-01T23:46:01.927Z,98965.56
2023-04-01T23:48:32.680Z,98969.34
2023-04-01T23:51:00.424Z,98978.91
2023-04-01T23:53:30.457Z,98988.47
2023-04-01T23:55:58.131Z,98989.38
2023-04-01T23:58:27.890Z,98998.25
